Songa Antofagasta — A8OU5 — position and weather

sailwx.info

Track history (hours):
 
Tides and Currents Weather Stations Pressure Air Temp Water Temp Dewpoint Dewpoint Depression Visibility Wind Speed Wind Dir Waves Ship Positions

Songa Antofagasta

Last reported at 2018-Feb-22 14:05 UTC. Time now 2018-Feb-22 17:11 UTC.
Position N 39°41' W 073°52'.

Length 224 m; draft 10.5 m.

Type: Ship (hazmat cat A). MMSI: 636018035.

Date/timePositionNaut miles runAvg speedWind from/ knotsBaromVisibWave heightAir tempDewpointWater temp
2018-Feb-22 14:05N 39°41' W 073°52'217.6
2018-Feb-22 13:56N 39°44' W 073°51'3917.5
2018-Feb-22 11:42N 40°23' W 073°49'316.4
2018-Feb-22 11:30N 40°26' W 073°49'5 9.1
2018-Feb-22 10:59N 40°29' W 073°54'611.9
2018-Feb-22 10:30N 40°32' W 074°01'713.5
2018-Feb-22 10:00N 40°38' W 074°03'4 7.4
2018-Feb-22 09:30N 40°38' W 074°08'2 4.0
2018-Feb-22 09:00N 40°40' W 074°09'0 0.0
2018-Feb-22 08:28N 40°40' W 074°09'0 0.0
2018-Feb-22 08:00N 40°40' W 074°09'0 0.0
2018-Feb-22 07:30N 40°40' W 074°09'0 0.0
2018-Feb-22 07:00N 40°40' W 074°09'0 0.0
2018-Feb-22 06:30N 40°40' W 074°09'0 0.0
2018-Feb-22 05:59N 40°40' W 074°09'0 0.0
2018-Feb-22 05:29N 40°40' W 074°09'0 0.0
2018-Feb-22 04:59N 40°40' W 074°09'0 0.0
2018-Feb-22 04:29N 40°40' W 074°09'0 0.0
2018-Feb-22 03:59N 40°40' W 074°09'0 0.0
2018-Feb-22 03:28N 40°40' W 074°09'0 0.0
2018-Feb-22 02:58N 40°40' W 074°09'0 0.0
2018-Feb-22 02:28N 40°40' W 074°09'0 0.0
2018-Feb-22 01:58N 40°40' W 074°09'0 0.2
2018-Feb-22 01:24N 40°41' W 074°09'0 0.1
2018-Feb-22 01:00N 40°41' W 074°08'2 3.7
2018-Feb-22 00:30N 40°39' W 074°09'3 6.1
2018-Feb-22 00:00N 40°39' W 074°05'3 6.3
2018-Feb-21 23:30N 40°41' W 074°02'1 1.6
2018-Feb-21 23:00N 40°41' W 074°01'0 0.0
2018-Feb-21 22:30N 40°41' W 074°01'0 0.0
2018-Feb-21 22:00N 40°41' W 074°01'0 0.0
2018-Feb-21 21:29N 40°41' W 074°01'0 0.0
2018-Feb-21 20:59N 40°41' W 074°01'0 0.0
2018-Feb-21 20:29N 40°41' W 074°01'0 0.0
2018-Feb-21 19:59N 40°41' W 074°01'0 0.0
2018-Feb-21 19:29N 40°41' W 074°01'0 0.0
2018-Feb-21 18:58N 40°41' W 074°01'0 0.0
2018-Feb-21 18:28N 40°41' W 074°01'0 0.0
2018-Feb-21 17:58N 40°41' W 074°01'0 0.0
2018-Feb-21 17:25N 40°41' W 074°01'0 0.0
2018-Feb-21 17:00N 40°41' W 074°01'0 0.6
2018-Feb-21 16:30N 40°41' W 074°01'3 6.6
2018-Feb-21 16:00N 40°38' W 074°03'714.4
2018-Feb-21 15:30N 40°31' W 073°60'612.4
2018-Feb-21 14:59N 40°28' W 073°53'4 7.9
2018-Feb-21 14:27N 40°27' W 073°48'1 3.2
2018-Feb-21 14:00N 40°26' W 073°46'17 6.5
2018-Feb-21 11:27N 40°16' W 073°28'5 6.7
2018-Feb-21 10:43N 40°13' W 073°24'3 7.5
2018-Feb-21 10:16N 40°11' W 073°20'2 8.2
2018-Feb-21 09:58N 40°09' W 073°18'6 7.9
2018-Feb-21 09:12N 40°06' W 073°11'  
Track history (hours):
 
Tides and Currents Weather Stations Pressure Air Temp Water Temp Dewpoint Dewpoint Depression Visibility Wind Speed Wind Dir Waves Ship Positions

Songa Antofagasta

Last reported at 2018-Feb-22 14:05 UTC. Time now 2018-Feb-22 17:11 UTC.
Position N 39°41' W 073°52'.

Length 224 m; draft 10.5 m.

Type: Ship (hazmat cat A). MMSI: 636018035.

Date/timePositionNaut miles runAvg speedWind from/ knotsBaromVisibWave heightAir tempDewpointWater temp
2018-Feb-22 14:05N 39°41' W 073°52'217.6
2018-Feb-22 13:56N 39°44' W 073°51'3917.5
2018-Feb-22 11:42N 40°23' W 073°49'316.4
2018-Feb-22 11:30N 40°26' W 073°49'5 9.1
2018-Feb-22 10:59N 40°29' W 073°54'611.9
2018-Feb-22 10:30N 40°32' W 074°01'713.5
2018-Feb-22 10:00N 40°38' W 074°03'4 7.4
2018-Feb-22 09:30N 40°38' W 074°08'2 4.0
2018-Feb-22 09:00N 40°40' W 074°09'0 0.0
2018-Feb-22 08:28N 40°40' W 074°09'0 0.0
2018-Feb-22 08:00N 40°40' W 074°09'0 0.0
2018-Feb-22 07:30N 40°40' W 074°09'0 0.0
2018-Feb-22 07:00N 40°40' W 074°09'0 0.0
2018-Feb-22 06:30N 40°40' W 074°09'0 0.0
2018-Feb-22 05:59N 40°40' W 074°09'0 0.0
2018-Feb-22 05:29N 40°40' W 074°09'0 0.0
2018-Feb-22 04:59N 40°40' W 074°09'0 0.0
2018-Feb-22 04:29N 40°40' W 074°09'0 0.0
2018-Feb-22 03:59N 40°40' W 074°09'0 0.0
2018-Feb-22 03:28N 40°40' W 074°09'0 0.0
2018-Feb-22 02:58N 40°40' W 074°09'0 0.0
2018-Feb-22 02:28N 40°40' W 074°09'0 0.0
2018-Feb-22 01:58N 40°40' W 074°09'0 0.2
2018-Feb-22 01:24N 40°41' W 074°09'0 0.1
2018-Feb-22 01:00N 40°41' W 074°08'2 3.7
2018-Feb-22 00:30N 40°39' W 074°09'3 6.1
2018-Feb-22 00:00N 40°39' W 074°05'3 6.3
2018-Feb-21 23:30N 40°41' W 074°02'1 1.6
2018-Feb-21 23:00N 40°41' W 074°01'0 0.0
2018-Feb-21 22:30N 40°41' W 074°01'0 0.0
2018-Feb-21 22:00N 40°41' W 074°01'0 0.0
2018-Feb-21 21:29N 40°41' W 074°01'0 0.0
2018-Feb-21 20:59N 40°41' W 074°01'0 0.0
2018-Feb-21 20:29N 40°41' W 074°01'0 0.0
2018-Feb-21 19:59N 40°41' W 074°01'0 0.0
2018-Feb-21 19:29N 40°41' W 074°01'0 0.0
2018-Feb-21 18:58N 40°41' W 074°01'0 0.0
2018-Feb-21 18:28N 40°41' W 074°01'0 0.0
2018-Feb-21 17:58N 40°41' W 074°01'0 0.0
2018-Feb-21 17:25N 40°41' W 074°01'0 0.0
2018-Feb-21 17:00N 40°41' W 074°01'0 0.6
2018-Feb-21 16:30N 40°41' W 074°01'3 6.6
2018-Feb-21 16:00N 40°38' W 074°03'714.4
2018-Feb-21 15:30N 40°31' W 073°60'612.4
2018-Feb-21 14:59N 40°28' W 073°53'4 7.9
2018-Feb-21 14:27N 40°27' W 073°48'1 3.2
2018-Feb-21 14:00N 40°26' W 073°46'17 6.5
2018-Feb-21 11:27N 40°16' W 073°28'5 6.7
2018-Feb-21 10:43N 40°13' W 073°24'3 7.5
2018-Feb-21 10:16N 40°11' W 073°20'2 8.2
2018-Feb-21 09:58N 40°09' W 073°18'6 7.9
2018-Feb-21 09:12N 40°06' W 073°11'  

Dump ship's entire track history